createdAt,value
2024-01-15T00:02:02.352Z,-4.09
2024-01-15T00:04:29.332Z,-3.96
2024-01-15T00:06:56.108Z,-3.92
2024-01-15T00:09:22.787Z,-3.95
2024-01-15T00:11:49.373Z,-3.86
2024-01-15T00:14:21.086Z,-3.72
2024-01-15T00:16:50.089Z,-3.72
2024-01-15T00:19:16.896Z,-3.72
2024-01-15T00:21:43.789Z,-3.86
2024-01-15T00:24:10.650Z,-3.85
2024-01-15T00:26:37.567Z,-3.88
2024-01-15T00:29:04.612Z,-3.84
2024-01-15T00:31:31.361Z,-4.11
2024-01-15T00:33:58.961Z,-4.01
2024-01-15T00:36:25.621Z,-4.00
2024-01-15T00:38:52.572Z,-3.96
2024-01-15T00:41:19.604Z,-3.97
2024-01-15T00:43:50.371Z,-3.92
2024-01-15T00:46:16.928Z,-3.97
2024-01-15T00:48:43.576Z,-3.95
2024-01-15T00:51:10.245Z,-4.04
2024-01-15T00:53:36.749Z,-4.10
2024-01-15T00:56:04.292Z,-4.12
2024-01-15T00:58:30.832Z,-4.07
2024-01-15T01:00:57.539Z,-4.06
2024-01-15T01:03:24.206Z,-3.95
2024-01-15T01:05:51.227Z,-4.12
2024-01-15T01:08:18.881Z,-3.85
2024-01-15T01:10:45.858Z,-3.80
2024-01-15T01:13:12.323Z,-3.62
2024-01-15T01:15:39.810Z,-3.30
2024-01-15T01:18:06.645Z,-3.09
2024-01-15T01:20:33.450Z,-3.08
2024-01-15T01:23:00.803Z,-2.67
2024-01-15T01:25:27.386Z,-2.55
2024-01-15T01:27:53.887Z,-2.54
2024-01-15T01:30:20.556Z,-2.42
2024-01-15T01:32:47.146Z,-2.26
2024-01-15T01:35:13.960Z,-2.15
2024-01-15T01:37:40.428Z,-2.03
2024-01-15T01:40:07.631Z,-2.04
2024-01-15T01:42:34.183Z,-1.83
2024-01-15T01:45:00.732Z,-1.83
2024-01-15T01:47:27.834Z,-1.79
2024-01-15T01:49:55.194Z,-1.77
2024-01-15T01:52:21.927Z,-1.82
2024-01-15T01:54:49.002Z,-1.74
2024-01-15T01:57:16.501Z,-1.80
2024-01-15T01:59:43.162Z,-1.74
2024-01-15T02:02:09.708Z,-1.61
2024-01-15T02:04:38.035Z,-1.76
2024-01-15T02:07:05.506Z,-1.81
2024-01-15T02:09:33.390Z,-2.00
2024-01-15T02:12:00.336Z,-1.94
2024-01-15T02:14:26.994Z,-1.66
2024-01-15T02:16:53.618Z,-1.72
2024-01-15T02:19:20.331Z,-1.84
2024-01-15T02:21:47.200Z,-1.95
2024-01-15T02:24:14.074Z,-1.90
2024-01-15T02:26:40.622Z,-1.93
2024-01-15T02:29:09.843Z,-1.81
2024-01-15T02:31:37.875Z,-1.95
2024-01-15T02:34:04.748Z,-2.12
2024-01-15T02:36:31.626Z,-1.96
2024-01-15T02:38:58.432Z,-2.01
2024-01-15T02:41:25.038Z,-2.22
2024-01-15T02:43:51.580Z,-2.26
2024-01-15T02:46:18.262Z,-2.18
2024-01-15T02:48:45.008Z,-2.00
2024-01-15T02:51:11.688Z,-1.99
2024-01-15T02:53:38.481Z,-1.96
2024-01-15T02:56:05.220Z,-2.07
2024-01-15T02:58:32.175Z,-1.87
2024-01-15T03:00:59.317Z,-1.91
2024-01-15T03:03:26.217Z,-1.89
2024-01-15T03:05:53.109Z,-1.89
2024-01-15T03:08:19.679Z,-2.02
2024-01-15T03:10:46.163Z,-1.97
2024-01-15T03:13:12.620Z,-2.03
2024-01-15T03:15:39.137Z,-2.06
2024-01-15T03:18:06.062Z,-2.19
2024-01-15T03:20:32.639Z,-2.17
2024-01-15T03:22:59.091Z,-2.19
2024-01-15T03:25:25.656Z,-2.22
2024-01-15T03:27:52.173Z,-2.24
2024-01-15T03:30:18.932Z,-2.19
2024-01-15T03:32:45.552Z,-2.38
2024-01-15T03:35:12.152Z,-2.20
2024-01-15T03:37:38.696Z,-2.34
2024-01-15T03:40:06.085Z,-2.39
2024-01-15T03:42:32.885Z,-2.39
2024-01-15T03:44:59.548Z,-2.37
2024-01-15T03:47:27.116Z,-2.42
2024-01-15T03:49:53.756Z,-2.51
2024-01-15T03:52:20.318Z,-2.44
2024-01-15T03:54:46.897Z,-2.51
2024-01-15T03:57:13.557Z,-2.55
2024-01-15T03:59:42.682Z,-2.38
2024-01-15T04:02:09.223Z,-2.40
2024-01-15T04:04:35.757Z,-2.47
2024-01-15T04:07:02.381Z,-2.48
2024-01-15T04:09:28.948Z,-2.41
2024-01-15T04:11:55.491Z,-2.48
2024-01-15T04:14:21.992Z,-2.56
2024-01-15T04:16:48.514Z,-2.75
2024-01-15T04:19:15.161Z,-2.77
2024-01-15T04:21:42.611Z,-2.69
2024-01-15T04:24:09.225Z,-2.73
2024-01-15T04:26:35.730Z,-2.59
2024-01-15T04:29:02.317Z,-2.47
2024-01-15T04:31:29.030Z,-2.54
2024-01-15T04:33:55.913Z,-2.40
2024-01-15T04:36:22.782Z,-2.48
2024-01-15T04:38:49.869Z,-2.27
2024-01-15T04:41:17.790Z,-2.30
2024-01-15T04:43:44.333Z,-2.21
2024-01-15T04:46:11.096Z,-2.41
2024-01-15T04:48:37.843Z,-2.27
2024-01-15T04:51:09.879Z,-2.13
2024-01-15T04:53:36.926Z,-2.31
2024-01-15T04:56:03.582Z,-2.35
2024-01-15T04:58:30.496Z,-2.35
2024-01-15T05:00:57.546Z,-2.24
2024-01-15T05:03:24.489Z,-2.21
2024-01-15T05:05:51.099Z,-2.19
2024-01-15T05:08:17.733Z,-2.15
2024-01-15T05:10:44.275Z,-2.25
2024-01-15T05:13:10.948Z,-2.22
2024-01-15T05:15:37.585Z,-2.28
2024-01-15T05:18:04.268Z,-2.29
2024-01-15T05:20:30.911Z,-2.32
2024-01-15T05:22:57.657Z,-2.26
2024-01-15T05:25:24.158Z,-2.26
2024-01-15T05:27:50.863Z,-2.24
2024-01-15T05:30:17.774Z,-2.12
2024-01-15T05:32:44.673Z,-1.99
2024-01-15T05:35:11.330Z,-1.93
2024-01-15T05:37:37.834Z,-1.72
2024-01-15T05:40:05.819Z,-1.84
2024-01-15T05:42:33.249Z,-1.70
2024-01-15T05:45:00.807Z,-1.46
2024-01-15T05:47:27.448Z,-1.53
2024-01-15T05:49:54.260Z,-1.62
2024-01-15T05:52:22.132Z,-1.53
2024-01-15T05:54:49.283Z,-1.42
2024-01-15T05:57:15.900Z,-1.53
2024-01-15T05:59:42.508Z,-1.60
2024-01-15T06:02:09.061Z,-1.73
2024-01-15T06:04:35.620Z,-1.50
2024-01-15T06:07:02.486Z,-1.57
2024-01-15T06:09:29.544Z,-1.54
2024-01-15T06:11:56.455Z,-1.53
2024-01-15T06:14:23.045Z,-1.77
2024-01-15T06:16:50.411Z,-1.84
2024-01-15T06:19:17.039Z,-1.65
2024-01-15T06:21:43.633Z,-1.54
2024-01-15T06:24:11.317Z,-1.59
2024-01-15T06:26:37.951Z,-1.52
2024-01-15T06:29:04.692Z,-1.29
2024-01-15T06:31:31.326Z,-1.26
2024-01-15T06:33:58.130Z,-1.60
2024-01-15T06:36:24.765Z,-1.44
2024-01-15T06:38:51.317Z,-1.37
2024-01-15T06:41:17.803Z,-1.40
2024-01-15T06:43:44.278Z,-1.37
2024-01-15T06:46:10.837Z,-1.42
2024-01-15T06:48:37.524Z,-1.42
2024-01-15T06:51:04.368Z,-1.29
2024-01-15T06:53:30.920Z,-1.27
2024-01-15T06:55:57.452Z,-1.21
2024-01-15T06:58:24.023Z,-1.25
2024-01-15T07:00:50.619Z,-1.16
2024-01-15T07:03:17.276Z,-1.14
2024-01-15T07:05:44.043Z,-1.18
2024-01-15T07:08:10.676Z,-1.11
2024-01-15T07:10:37.619Z,-0.96
2024-01-15T07:13:05.947Z,-1.02
2024-01-15T07:15:32.728Z,-1.03
2024-01-15T07:17:59.387Z,-1.16
2024-01-15T07:20:25.918Z,-1.07
2024-01-15T07:22:52.556Z,-1.06
2024-01-15T07:25:19.069Z,-1.20
2024-01-15T07:27:46.087Z,-1.14
2024-01-15T07:30:13.649Z,-0.80
2024-01-15T07:32:40.382Z,-0.85
2024-01-15T07:35:07.171Z,-0.85
2024-01-15T07:37:34.516Z,-0.92
2024-01-15T07:40:02.031Z,-0.89
2024-01-15T07:42:28.751Z,-0.83
2024-01-15T07:44:55.275Z,-0.85
2024-01-15T07:47:21.775Z,-0.94
2024-01-15T07:49:48.492Z,-0.99
2024-01-15T07:52:15.200Z,-0.79
2024-01-15T07:54:42.079Z,-0.69
2024-01-15T07:57:08.703Z,-0.72
2024-01-15T07:59:36.903Z,-0.69
2024-01-15T08:02:03.970Z,-0.60
2024-01-15T08:04:30.875Z,-0.55
2024-01-15T08:06:58.299Z,-0.68
2024-01-15T08:09:25.258Z,-0.64
2024-01-15T08:11:51.926Z,-0.52
2024-01-15T08:14:19.019Z,-0.43
2024-01-15T08:16:45.656Z,-0.42
2024-01-15T08:19:12.778Z,-0.59
2024-01-15T08:21:39.664Z,-0.61
2024-01-15T08:24:06.659Z,-0.54
2024-01-15T08:26:33.896Z,-0.53
2024-01-15T08:29:00.801Z,-0.49
2024-01-15T08:31:28.356Z,-0.43
2024-01-15T08:33:55.092Z,-0.35
2024-01-15T08:36:22.703Z,-0.20
2024-01-15T08:38:49.188Z,-0.38
2024-01-15T08:41:15.764Z,-0.36
2024-01-15T08:43:42.271Z,-0.34
2024-01-15T08:46:08.945Z,-0.46
2024-01-15T08:48:35.753Z,-0.35
2024-01-15T08:51:02.411Z,-0.21
2024-01-15T08:53:29.117Z,-0.13
2024-01-15T08:55:55.708Z,-0.14
2024-01-15T08:58:24.835Z,0.03
2024-01-15T09:00:52.079Z,-0.23
2024-01-15T09:03:19.073Z,-0.14
2024-01-15T09:05:45.687Z,0.11
2024-01-15T09:08:12.179Z,0.01
2024-01-15T09:10:38.655Z,-0.31
2024-01-15T09:13:05.846Z,0.17
2024-01-15T09:15:32.552Z,0.12
2024-01-15T09:18:00.131Z,-0.06
2024-01-15T09:20:28.521Z,0.03
2024-01-15T09:22:55.095Z,0.27
2024-01-15T09:25:21.756Z,0.19
2024-01-15T09:27:48.468Z,0.28
2024-01-15T09:30:15.726Z,0.38
2024-01-15T09:32:42.511Z,0.18
2024-01-15T09:35:09.645Z,0.30
2024-01-15T09:37:44.911Z,0.64
2024-01-15T09:40:16.339Z,0.45
2024-01-15T09:42:44.199Z,0.47
2024-01-15T09:45:11.685Z,0.60
2024-01-15T09:47:41.754Z,0.41
2024-01-15T09:50:10.466Z,0.51
2024-01-15T09:52:37.873Z,0.61
2024-01-15T09:55:06.675Z,0.63
2024-01-15T09:57:34.003Z,0.29
2024-01-15T10:00:05.296Z,0.65
2024-01-15T10:02:32.276Z,0.62
2024-01-15T10:04:59.056Z,0.93
2024-01-15T10:07:27.228Z,0.73
2024-01-15T10:09:54.072Z,0.71
2024-01-15T10:12:23.089Z,0.76
2024-01-15T10:14:50.607Z,0.99
2024-01-15T10:17:18.263Z,0.95
2024-01-15T10:19:49.928Z,0.77
2024-01-15T10:22:19.407Z,1.08
2024-01-15T10:24:48.520Z,1.04
2024-01-15T10:27:16.025Z,1.02
2024-01-15T10:29:43.689Z,0.96
2024-01-15T10:32:11.080Z,0.98
2024-01-15T10:34:42.873Z,1.06
2024-01-15T10:37:10.570Z,1.37
2024-01-15T10:39:38.173Z,1.38
2024-01-15T10:42:05.415Z,1.39
2024-01-15T10:44:32.181Z,1.58
2024-01-15T10:46:58.662Z,1.26
2024-01-15T10:49:32.272Z,1.58
2024-01-15T10:52:00.418Z,1.55
2024-01-15T10:54:28.557Z,1.80
2024-01-15T10:56:57.576Z,1.75
2024-01-15T10:59:24.293Z,1.55
2024-01-15T11:01:55.050Z,1.70
2024-01-15T11:04:23.480Z,1.73
2024-01-15T11:06:58.076Z,1.67
2024-01-15T11:09:28.316Z,1.67
2024-01-15T11:12:09.028Z,1.56
2024-01-15T11:14:44.980Z,1.51
2024-01-15T11:17:12.214Z,1.68
2024-01-15T11:19:51.655Z,2.12
2024-01-15T11:22:30.490Z,1.77
2024-01-15T11:24:58.600Z,1.77
2024-01-15T11:27:48.986Z,1.83
2024-01-15T11:30:16.157Z,1.54
2024-01-15T11:32:43.708Z,1.61
2024-01-15T11:35:11.553Z,1.71
2024-01-15T11:37:53.365Z,1.74
2024-01-15T11:40:21.893Z,1.81
2024-01-15T11:42:49.750Z,1.52
2024-01-15T11:45:20.397Z,1.36
2024-01-15T11:48:08.813Z,1.39
2024-01-15T11:50:35.561Z,1.32
2024-01-15T11:53:07.113Z,1.18
2024-01-15T11:55:40.510Z,1.36
2024-01-15T11:58:11.092Z,1.12
2024-01-15T12:00:46.302Z,1.29
2024-01-15T12:03:13.153Z,1.19
2024-01-15T12:05:40.739Z,0.91
2024-01-15T12:08:13.545Z,0.90
2024-01-15T12:10:42.397Z,1.09
2024-01-15T12:13:14.223Z,1.14
2024-01-15T12:15:45.381Z,0.89
2024-01-15T12:18:14.826Z,1.10
2024-01-15T12:20:43.724Z,1.28
2024-01-15T12:23:14.653Z,1.60
2024-01-15T12:25:41.621Z,1.46
2024-01-15T12:28:08.412Z,1.60
2024-01-15T12:30:37.241Z,1.49
2024-01-15T12:33:05.415Z,1.73
2024-01-15T12:35:32.766Z,2.07
2024-01-15T12:38:03.609Z,1.97
2024-01-15T12:40:33.251Z,2.33
2024-01-15T12:42:59.857Z,2.40
2024-01-15T12:45:26.741Z,2.47
2024-01-15T12:47:53.891Z,2.62
2024-01-15T12:50:21.852Z,2.43
2024-01-15T12:52:48.723Z,2.21
2024-01-15T12:55:15.760Z,2.31
2024-01-15T12:57:42.607Z,2.02
2024-01-15T13:00:13.429Z,2.00
2024-01-15T13:02:44.405Z,1.88
2024-01-15T13:05:12.698Z,1.83
2024-01-15T13:07:41.117Z,1.88
2024-01-15T13:10:10.019Z,2.00
2024-01-15T13:12:36.863Z,2.30
2024-01-15T13:15:04.783Z,1.97
2024-01-15T13:17:31.816Z,2.03
2024-01-15T13:19:58.519Z,2.09
2024-01-15T13:22:30.835Z,2.03
2024-01-15T13:24:57.527Z,2.19
2024-01-15T13:27:24.319Z,2.26
2024-01-15T13:29:51.015Z,2.26
2024-01-15T13:32:25.719Z,2.18
2024-01-15T13:34:52.300Z,2.16
2024-01-15T13:37:18.877Z,2.40
2024-01-15T13:39:46.890Z,1.98
2024-01-15T13:42:13.467Z,2.29
2024-01-15T13:44:40.404Z,2.09
2024-01-15T13:47:07.143Z,2.07
2024-01-15T13:49:35.268Z,2.00
2024-01-15T13:52:01.958Z,1.84
2024-01-15T13:54:41.516Z,1.69
2024-01-15T13:57:15.384Z,1.66
2024-01-15T13:59:42.066Z,1.62
2024-01-15T14:02:09.070Z,1.56
2024-01-15T14:04:35.598Z,1.49
2024-01-15T14:07:02.340Z,1.72
2024-01-15T14:09:28.955Z,1.73
2024-01-15T14:11:55.734Z,1.56
2024-01-15T14:14:22.211Z,1.43
2024-01-15T14:16:48.754Z,1.51
2024-01-15T14:19:16.526Z,1.51
2024-01-15T14:21:43.141Z,1.63
2024-01-15T14:24:09.954Z,1.60
2024-01-15T14:26:36.462Z,1.54
2024-01-15T14:29:03.049Z,1.61
2024-01-15T14:31:30.217Z,1.77
2024-01-15T14:33:57.008Z,1.55
2024-01-15T14:36:23.610Z,1.65
2024-01-15T14:38:50.135Z,1.46
2024-01-15T14:41:18.051Z,1.51
2024-01-15T14:43:44.902Z,1.40
2024-01-15T14:46:12.551Z,1.51
2024-01-15T14:48:39.359Z,1.43
2024-01-15T14:51:06.700Z,1.47
2024-01-15T14:53:33.308Z,1.64
2024-01-15T14:55:59.981Z,1.45
2024-01-15T14:58:26.482Z,1.23
2024-01-15T15:00:53.117Z,1.16
2024-01-15T15:03:19.772Z,1.39
2024-01-15T15:05:46.563Z,1.38
2024-01-15T15:08:13.824Z,1.26
2024-01-15T15:10:43.369Z,1.22
2024-01-15T15:13:11.249Z,1.26
2024-01-15T15:15:37.999Z,1.21
2024-01-15T15:18:04.783Z,1.20
2024-01-15T15:20:31.570Z,1.23
2024-01-15T15:22:58.173Z,0.97
2024-01-15T15:25:24.793Z,0.98
2024-01-15T15:27:51.318Z,0.64
2024-01-15T15:30:18.062Z,0.52
2024-01-15T15:32:44.920Z,0.46
2024-01-15T15:35:12.032Z,0.42
2024-01-15T15:37:38.733Z,0.72
2024-01-15T15:40:09.611Z,0.58
2024-01-15T15:42:36.779Z,0.53
2024-01-15T15:45:04.619Z,0.57
2024-01-15T15:47:31.203Z,0.48
2024-01-15T15:49:58.386Z,0.62
2024-01-15T15:52:25.595Z,0.70
2024-01-15T15:54:53.136Z,0.55
2024-01-15T15:57:19.668Z,0.75
2024-01-15T15:59:46.178Z,0.66
2024-01-15T16:02:12.679Z,0.67
2024-01-15T16:04:39.634Z,0.69
2024-01-15T16:07:10.753Z,0.80
2024-01-15T16:09:37.682Z,0.87
2024-01-15T16:12:04.800Z,0.70
2024-01-15T16:14:31.399Z,0.71
2024-01-15T16:23:13.585Z,0.70
2024-01-15T16:23:26.954Z,0.76
2024-01-15T16:23:42.339Z,0.59
2024-01-15T16:25:19.780Z,0.64
2024-01-15T16:27:46.710Z,0.42
2024-01-15T16:30:24.706Z,0.73
2024-01-15T16:32:56.505Z,0.57
2024-01-15T16:35:23.581Z,0.67
2024-01-15T16:37:50.846Z,0.68
2024-01-15T16:40:17.867Z,0.65
2024-01-15T16:42:46.257Z,0.69
2024-01-15T16:45:13.048Z,0.70
2024-01-15T16:47:40.032Z,0.76
2024-01-15T16:50:06.844Z,0.59
2024-01-15T16:52:33.394Z,0.73
2024-01-15T16:55:00.277Z,0.80
2024-01-15T16:57:26.782Z,0.73
2024-01-15T16:59:53.302Z,0.42
2024-01-15T17:02:19.834Z,0.64
2024-01-15T17:04:46.394Z,0.63
2024-01-15T17:07:12.996Z,0.31
2024-01-15T17:09:39.510Z,0.50
2024-01-15T17:12:06.212Z,0.32
2024-01-15T17:14:32.852Z,0.51
2024-01-15T17:17:02.866Z,0.45
2024-01-15T17:19:29.527Z,0.60
2024-01-15T17:21:56.086Z,0.54
2024-01-15T17:24:22.785Z,0.43
2024-01-15T17:26:50.154Z,0.54
2024-01-15T17:29:17.586Z,0.34
2024-01-15T17:31:44.278Z,0.60
2024-01-15T17:34:11.579Z,0.42
2024-01-15T17:36:38.361Z,0.41
2024-01-15T17:39:07.120Z,0.30
2024-01-15T17:41:34.308Z,0.51
2024-01-15T17:44:02.134Z,0.56
2024-01-15T17:46:30.071Z,0.52
2024-01-15T17:49:03.631Z,0.51
2024-01-15T17:51:34.683Z,0.63
2024-01-15T17:54:02.110Z,0.71
2024-01-15T17:56:28.812Z,0.39
2024-01-15T17:58:56.855Z,0.67
2024-01-15T18:01:23.775Z,0.81
2024-01-15T18:03:51.586Z,0.99
2024-01-15T18:06:18.276Z,0.93
2024-01-15T18:08:45.402Z,0.88
2024-01-15T18:11:19.255Z,0.97
2024-01-15T18:13:46.769Z,1.01
2024-01-15T18:16:13.611Z,0.81
2024-01-15T18:18:40.753Z,0.93
2024-01-15T18:21:07.865Z,0.94
2024-01-15T18:23:35.158Z,0.92
2024-01-15T18:26:01.924Z,0.89
2024-01-15T18:28:28.523Z,0.75
2024-01-15T18:30:55.207Z,0.63
2024-01-15T18:33:24.103Z,0.70
2024-01-15T18:35:51.252Z,0.67
2024-01-15T18:38:17.957Z,0.48
2024-01-15T18:40:44.634Z,0.36
2024-01-15T18:43:11.263Z,0.48
2024-01-15T18:45:37.779Z,0.54
2024-01-15T18:48:04.581Z,0.54
2024-01-15T18:50:31.175Z,0.42
2024-01-15T18:52:57.837Z,0.39
2024-01-15T18:55:24.765Z,0.52
2024-01-15T18:57:52.068Z,0.55
2024-01-15T19:00:20.199Z,0.57
2024-01-15T19:02:46.822Z,0.43
2024-01-15T19:05:13.558Z,0.52
2024-01-15T19:07:40.155Z,0.56
2024-01-15T19:10:08.192Z,0.38
2024-01-15T19:12:34.822Z,0.43
2024-01-15T19:15:01.415Z,0.42
2024-01-15T19:17:28.044Z,0.34
2024-01-15T19:19:54.586Z,0.33
2024-01-15T19:22:21.142Z,0.32
2024-01-15T19:24:47.894Z,0.42
2024-01-15T19:27:14.747Z,0.36
2024-01-15T19:29:41.445Z,0.38
2024-01-15T19:32:08.130Z,0.31
2024-01-15T19:34:35.131Z,-0.05
2024-01-15T19:37:02.229Z,0.24
2024-01-15T19:39:29.512Z,0.23
2024-01-15T19:41:56.958Z,0.25
2024-01-15T19:44:23.496Z,0.19
2024-01-15T19:46:50.100Z,0.29
2024-01-15T19:49:17.015Z,0.29
2024-01-15T19:51:44.600Z,0.35
2024-01-15T19:54:11.681Z,0.24
2024-01-15T19:56:39.090Z,0.03
2024-01-15T19:59:06.755Z,-0.04
2024-01-15T20:01:33.647Z,0.01
2024-01-15T20:04:00.200Z,-0.07
2024-01-15T20:06:26.862Z,-0.09
2024-01-15T20:08:55.525Z,-0.12
2024-01-15T20:11:22.417Z,0.04
2024-01-15T20:13:49.652Z,0.09
2024-01-15T20:16:16.304Z,0.14
2024-01-15T20:18:43.603Z,0.13
2024-01-15T20:21:11.110Z,0.40
2024-01-15T20:23:46.528Z,0.41
2024-01-15T20:26:21.540Z,0.29
2024-01-15T20:28:48.487Z,0.25
2024-01-15T20:31:15.325Z,0.24
2024-01-15T20:33:42.181Z,0.16
2024-01-15T20:36:14.204Z,0.21
2024-01-15T20:38:40.912Z,-0.10
2024-01-15T20:41:08.001Z,-0.06
2024-01-15T20:43:35.957Z,-0.04
2024-01-15T20:46:03.246Z,-0.07
2024-01-15T20:48:30.275Z,0.05
2024-01-15T20:50:58.730Z,0.05
2024-01-15T20:53:25.353Z,0.17
2024-01-15T20:55:51.932Z,0.06
2024-01-15T20:58:23.941Z,-0.12
2024-01-15T21:00:51.295Z,-0.27
2024-01-15T21:03:18.777Z,-0.33
2024-01-15T21:05:45.578Z,-0.50
2024-01-15T21:08:12.247Z,-0.43
2024-01-15T21:10:38.779Z,-0.47
2024-01-15T21:13:05.435Z,-0.47
2024-01-15T21:15:31.988Z,-0.57
2024-01-15T21:17:58.635Z,-0.60
2024-01-15T21:20:25.331Z,-0.86
2024-01-15T21:22:51.812Z,-0.76
2024-01-15T21:25:18.354Z,-0.73
2024-01-15T21:27:47.178Z,-0.64
2024-01-15T21:30:15.997Z,-0.55
2024-01-15T21:32:42.822Z,-0.61
2024-01-15T21:35:11.688Z,-0.70
2024-01-15T21:37:38.195Z,-0.44
2024-01-15T21:40:08.349Z,-0.55
2024-01-15T21:42:38.177Z,-0.36
2024-01-15T21:45:06.628Z,-0.45
2024-01-15T21:47:33.229Z,-0.59
2024-01-15T21:50:00.307Z,-0.53
2024-01-15T21:52:27.287Z,-0.78
2024-01-15T21:54:53.958Z,-0.92
2024-01-15T21:57:20.452Z,-0.98
2024-01-15T21:59:46.968Z,-1.02
2024-01-15T22:02:13.732Z,-0.71
2024-01-15T22:04:40.219Z,-0.69
2024-01-15T22:07:06.973Z,-0.98
2024-01-15T22:09:33.806Z,-0.77
2024-01-15T22:12:00.633Z,-0.90
2024-01-15T22:14:28.586Z,-0.78
2024-01-15T22:16:55.443Z,-0.98
2024-01-15T22:19:22.028Z,-1.00
2024-01-15T22:21:49.755Z,-0.68
2024-01-15T22:24:19.180Z,-0.75
2024-01-15T22:26:45.742Z,-0.99
2024-01-15T22:29:12.354Z,-1.00
2024-01-15T22:31:38.873Z,-0.99
2024-01-15T22:34:05.657Z,-0.99
2024-01-15T22:36:32.847Z,-1.02
2024-01-15T22:38:59.368Z,-0.96
2024-01-15T22:41:25.940Z,-0.83
2024-01-15T22:43:52.421Z,-1.16
2024-01-15T22:46:19.033Z,-1.21
2024-01-15T22:48:45.706Z,-0.86
2024-01-15T22:51:12.219Z,-1.07
2024-01-15T22:53:38.769Z,-1.02
2024-01-15T22:56:05.508Z,-1.03
2024-01-15T22:58:31.987Z,-0.91
2024-01-15T23:01:00.092Z,-1.02
2024-01-15T23:03:26.864Z,-0.86
2024-01-15T23:05:54.211Z,-0.94
2024-01-15T23:08:20.754Z,-1.03
2024-01-15T23:10:47.373Z,-1.08
2024-01-15T23:13:14.992Z,-0.83
2024-01-15T23:15:41.561Z,-0.98
2024-01-15T23:18:08.288Z,-1.00
2024-01-15T23:20:35.252Z,-1.20
2024-01-15T23:23:02.308Z,-1.06
2024-01-15T23:25:29.065Z,-1.10
2024-01-15T23:27:55.619Z,-0.88
2024-01-15T23:30:22.222Z,-0.92
2024-01-15T23:32:49.413Z,-1.03
2024-01-15T23:35:16.302Z,-0.90
2024-01-15T23:37:42.838Z,-1.07
2024-01-15T23:40:09.664Z,-1.12
2024-01-15T23:42:36.263Z,-1.03
2024-01-15T23:45:03.098Z,-0.93
2024-01-15T23:47:29.654Z,-1.02
2024-01-15T23:49:56.226Z,-1.18
2024-01-15T23:52:22.706Z,-1.13
2024-01-15T23:54:49.200Z,-0.93
2024-01-15T23:57:15.886Z,-1.09
2024-01-15T23:59:42.456Z,-1.15
